Observations for WASHINGTON NATIONAL, VA (DCA)

KDCA 171907Z 22016G26KT 4SM R01/4000VP6000FT -TSRA BKN043CB OVC200 31/22 A2980 RMK AO2 PK WND 22026/1907 LTG DSNT W AND NW RAB06 TSB06 OCNL LTGIC ALQDS TS ALQDS
KDCA 171909Z 21020G27KT 3/4SM R01/2400VP6000FT -TSRA BKN043CB OVC200 30/23 A2981 RMK AO2 PK WND 22027/1908 LTG DSNT W AND NW RAB06 TSB06 PRESRR OCNL LTGIC ALQDS
KDCA 171911Z 19011G27KT 1/2SM R01/2000VP6000FT -TSRA FEW018 OVC040CB 28/23 A2981 RMK AO2 PK WND 22027/1908 LTG DSNT W AND NW RAB06 TSB06 PRESRR OCNL LTGIC ALQDS
KDCA 171914Z 24013G27KT 200V270 1/2SM R01/2000VP6000FT +TSRA SCT016 OVC040CB 26/22 A2982 RMK AO2 PK WND 22027/1908 LTG DSNT W-NE RAB06 TSB06 OCNL LTGIC ALQDS TS
KDCA 171919Z 31018G25KT 1/2SM R01/2000V3000FT +TSRA BKN014CB BKN070 OVC085 25/22 A2982 RMK AO2 PK WND 22027/1908 LTG DSNT ALQDS RAB06 TSB06 PRESRR OCNL LTGIC AL
KDCA 171922Z 34024G30KT 1/4SM R01/2000V3000FT +TSRA BKN014CB BKN070 OVC085 25/22 A2982 RMK AO2 PK WND 34030/1921 WSHFT 1908 LTG DSNT ALQDS RAB06 TSB06 OCNL LTGI
KDCA 171852Z 21007KT 10SM SCT040 BKN095 OVC250 32/22 A2979 RMK AO2 LTG DSNT W SLP086 CB DSNT E-SE AND DSNT SW-NW MOV E T03170222
KDCA 171752Z 17010KT 10SM BKN032 BKN140 BKN250 32/23 A2981 RMK AO2 RAB1654E26 SLP094 P0000 60000 T03170233 10322 20272 58017
KDCA 171652Z 17012KT 10SM SCT032 BKN140 OVC250 31/23 A2984 RMK AO2 RAB36E46 SLP103 P0000 T03060233  
KDCA 171552Z 17010KT 10SM FEW035 BKN130 BKN250 31/23 A2985 RMK AO2 SLP109 T03110228 
KDCA 171452Z 17009KT 10SM FEW035 SCT120 BKN250 31/23 A2986 RMK AO2 SLP111 T03060228 56010   
KDCA 171352Z 18007KT 10SM FEW090 FEW140 BKN250 30/22 A2987 RMK AO2 SLP114 T03000222 
KDCA 171252Z 18007KT 10SM FEW140 BKN250 28/23 A2988 RMK AO2 SLP118 T02830228
KDCA 171152Z 21009KT 10SM FEW085 SCT140 BKN250 27/22 A2989 RMK AO2 SLP122 T02720217 10272 20256 54000   
KDCA 171052Z 19004KT 10SM SCT085 BKN140 BKN250 26/22 A2989 RMK AO2 SLP123 T02560222 
KDCA 170952Z 19007KT 10SM FEW140 SCT250 26/22 A2989 RMK AO2 SLP120 T02560222
KDCA 170852Z 18007KT 10SM BKN250 26/22 A2989 RMK AO2 SLP122 T02560222 58009 
KDCA 170752Z 20008KT 10SM FEW160 SCT250 26/22 A2991 RMK AO2 SLP127 T02610222
KDCA 170652Z 17010KT 10SM FEW250 27/23 A2991 RMK AO2 SLP128 T02670228   
KDCA 170552Z 18008KT 10SM FEW250 27/22 A2992 RMK AO2 SLP131 T02670222 10289 20267 58006 
KDCA 170452Z 19007KT 10SM SCT150 BKN250 27/22 A2993 RMK AO2 SLP135 T02720222 403670244  
KDCA 170352Z 19007KT 10SM FEW170 BKN250 27/22 A2994 RMK AO2 SLP137 T02720222
KDCA 170252Z 18006KT 10SM FEW170 BKN250 28/22 A2994 RMK AO2 SLP137 T02780222 52004  
KDCA 170152Z 18005KT 10SM FEW044 SCT170 BKN250 28/21 A2993 RMK AO2 SLP136 T02830206 
KDCA 170052Z 18006KT 10SM FEW140 BKN170 OVC250 28/22 A2993 RMK AO2 TSE07 SLP134 T02830222   
KDCA 170013Z 16005KT 10SM VCTS SCT140 BKN160 OVC250 29/23 A2992 RMK AO2 LTG DSNT NE TSE07 T02890228
KDCA 170021Z 15004KT 10SM SCT140 BKN160 OVC250 29/23 A2992 RMK AO2 TSE07 T02890228
KDCA 162352Z COR 17008KT 10SM TS SCT140 BKN160 OVC250 29/23 A2992 RMK AO2 TSB52 SLP133 60000 T02890228 10367 20283 56004
KDCA 162252Z 16006KT 10SM OVC150 29/21 A2993 RMK AO2 LTG DSNT W SLP135 T02890211
KDCA 162201Z 17006KT 10SM SCT060 BKN130 BKN150 OVC240 29/19 A2992 RMK AO2 CB DSNT N-NE MOV E T02890189
KDCA 162152Z 17005KT 10SM SCT055 BKN130 BKN150 BKN200 29/19 A2992 RMK AO2 PK WND 25028/2106 WSHFT 2039 RAB04E30 SLP133 P0000 T02890194  
KDCA 162118Z 23013KT 10SM -RA SCT055 BKN130 BKN150 OVC200 29/19 A2993 RMK AO2 PK WND 25028/2106 WSHFT 2039 RAB04 CB DSNT N-NE MOV NE AND DSNT SW MOV NE P0000 T0
KDCA 162059Z 24016G23KT 10SM SCT055 BKN080 BKN100 30/20 A2994 RMK AO2 WSHFT 2039 T03000200
KDCA 162052Z 25019G26KT 10SM BKN050CB BKN200 31/19 A2994 RMK AO2 PK WND 24029/2043 WSHFT 2029 SLP137 CB VC SW-N MOV NE T03060194 55010  
KDCA 162045Z 25021G27KT 10SM BKN050CB BKN200 32/21 A2993 RMK AO2 PK WND 24029/2043 WSHFT 2029 CB VC SW-N MOV E T03220206
KDCA 161952Z COR 17013KT 10SM SCT055 35/22 A2992 RMK AO2 SLP130 CB DSNT NE MOV SE AND CB DSNT W MOV NE T03500222
KDCA 161917Z 18012G17KT 10SM SCT055 36/21 A2992 RMK AO2 CB DSNT NE MOV SE AND CB DSNT W MOV NE T03610206
KDCA 161852Z 19009KT 10SM SCT055TCU 36/21 A2994 RMK AO2 SLP139 TCU NW-NE T03560211